Login to view Products
 
Sunday, May 19, 2019 (11:31 UTC)
Ras Al Khaimah International Airport
ICAO: OMRK
IATA: RKT
  • METAR OMRK 191100Z 36011KT 330V040 9999 FEW040 37/15 Q1006 A2973=
  • TAF OMRK 191055Z 1912/2018 34013KT 8000 FEW040 PROB30 TEMPO 1912/2005 VRB20G35KT 1500 TSRA BLDU FEW040CB BECMG 1914/1916 11008KT BECMG 2008/2010 33012KT BECMG 2015/2017 10007KT=
D:\Input Parser\Destinations\Final\10\OMRKL121810551824433425.txt
1